LFCR/RDZ METAR and TAF weather

Enter ICAO airport designator
Station Type Date Time Source
LFCR METAR 2024/04/18 08:30 UTC NOAA

LFCR 180830Z AUTO 31012KT 9999 SCT020 BKN027 OVC033 06/03 Q1017 TEMPO 33020G30KT 3000 SHRA SCT025CB


Station Type Date Time Source
LFCR Decoded METAR 2024/04/18 08:30 UTC NOAA

Rodez, France (LFCR) 44-24N 002-29E 580M
Apr 18, 2024 - 04:30 AM EDT / 2024.04.18 0830 UTC
Wind: from the NW (310 degrees) at 14 MPH (12 KT):0
Visibility: greater than 7 mile(s):0
Sky conditions: overcast
Weather: Cumulonimbus clouds observed
Temperature: 42 F (6 C)
Dew Point: 37 F (3 C)
Relative Humidity: 81%
Pressure (altimeter): 30.03 in. Hg (1017 hPa)
ob: LFCR 180830Z AUTO 31012KT 9999 SCT020 BKN027 OVC033 06/03 Q1017 TEMPO 33020G30KT 3000 SHRA SCT025CB
cycle: 8

Station Type Date Time Source
LFCR TAF 2024/04/18 18:42 UTC NOAA